createdAt,value
2022-09-07T00:02:00.121Z,3.57
2022-09-07T00:04:29.544Z,3.10
2022-09-07T00:06:57.197Z,3.37
2022-09-07T00:09:24.922Z,3.43
2022-09-07T00:11:52.547Z,3.50
2022-09-07T00:14:20.667Z,3.47
2022-09-07T00:16:48.209Z,3.00
2022-09-07T00:19:16.153Z,3.17
2022-09-07T00:21:45.238Z,3.30
2022-09-07T00:24:13.119Z,3.23
2022-09-07T00:26:40.883Z,2.90
2022-09-07T00:29:08.775Z,2.80
2022-09-07T00:31:36.503Z,2.87
2022-09-07T00:34:04.329Z,3.17
2022-09-07T00:36:32.094Z,3.30
2022-09-07T00:39:01.142Z,3.40
2022-09-07T00:41:28.972Z,2.80
2022-09-07T00:43:58.003Z,2.47
2022-09-07T00:46:26.860Z,2.70
2022-09-07T00:48:57.430Z,3.20
2022-09-07T00:51:27.048Z,3.50
2022-09-07T00:53:56.350Z,2.50
2022-09-07T00:56:27.537Z,3.60
2022-09-07T00:58:55.309Z,3.40
2022-09-07T01:01:24.035Z,3.03
2022-09-07T01:03:53.555Z,3.10
2022-09-07T01:06:22.888Z,3.03
2022-09-07T01:08:51.288Z,2.70
2022-09-07T01:11:19.745Z,3.13
2022-09-07T01:13:49.905Z,2.97
2022-09-07T01:16:23.582Z,3.10
2022-09-07T01:18:54.178Z,2.80
2022-09-07T01:21:23.657Z,2.90
2022-09-07T01:24:14.056Z,2.90
2022-09-07T01:26:52.496Z,2.80
2022-09-07T01:29:24.936Z,2.93
2022-09-07T01:31:59.343Z,3.00
2022-09-07T01:34:27.173Z,2.97
2022-09-07T01:36:57.611Z,3.23
2022-09-07T01:39:29.185Z,3.00
2022-09-07T01:41:59.523Z,2.60
2022-09-07T01:44:32.188Z,3.10
2022-09-07T01:47:01.169Z,2.83
2022-09-07T01:49:30.549Z,2.83
2022-09-07T01:52:00.003Z,3.10
2022-09-07T01:54:29.830Z,3.10
2022-09-07T01:56:58.949Z,2.70
2022-09-07T01:59:30.714Z,3.10
2022-09-07T02:02:02.015Z,2.80
2022-09-07T02:04:32.719Z,3.00
2022-09-07T02:07:05.183Z,2.83
2022-09-07T02:09:34.630Z,2.83
2022-09-07T02:12:04.134Z,3.17
2022-09-07T02:14:34.920Z,3.23
2022-09-07T02:20:50.859Z,2.77
2022-09-07T02:23:20.161Z,3.40
2022-09-07T02:25:52.194Z,3.50
2022-09-07T02:28:21.694Z,2.77
2022-09-07T02:30:50.827Z,2.87
2022-09-07T02:33:18.872Z,2.90
2022-09-07T02:35:46.587Z,2.57
2022-09-07T02:38:14.587Z,3.07
2022-09-07T02:40:42.269Z,2.73
2022-09-07T02:43:11.075Z,3.30
2022-09-07T02:45:45.495Z,2.63
2022-09-07T02:48:17.796Z,2.80
2022-09-07T02:50:48.487Z,2.60
2022-09-07T02:53:23.517Z,2.80
2022-09-07T02:55:57.451Z,3.00
2022-09-07T02:58:30.714Z,3.10
2022-09-07T03:01:03.067Z,3.03
2022-09-07T03:03:38.296Z,3.10
2022-09-07T03:06:11.051Z,2.93
2022-09-07T03:08:39.834Z,3.37
2022-09-07T03:11:08.435Z,3.17
2022-09-07T03:13:36.912Z,3.40
2022-09-07T03:16:04.661Z,3.17
2022-09-07T03:18:33.940Z,3.27
2022-09-07T03:21:02.171Z,3.10
2022-09-07T03:23:29.864Z,3.13
2022-09-07T03:25:58.002Z,3.30
2022-09-07T03:28:25.824Z,3.53
2022-09-07T03:30:53.640Z,3.10
2022-09-07T03:33:21.342Z,3.20
2022-09-07T03:35:58.870Z,3.20
2022-09-07T03:38:26.691Z,3.03
2022-09-07T03:41:01.195Z,3.40
2022-09-07T03:43:29.430Z,3.60
2022-09-07T03:46:00.789Z,3.50
2022-09-07T03:48:29.397Z,3.50
2022-09-07T03:51:02.021Z,3.70
2022-09-07T03:53:31.637Z,3.97
2022-09-07T03:56:00.222Z,3.20
2022-09-07T03:58:29.689Z,3.67
2022-09-07T04:00:57.785Z,3.73
2022-09-07T04:03:25.551Z,3.20
2022-09-07T04:05:53.240Z,3.20
2022-09-07T04:08:25.457Z,3.27
2022-09-07T04:10:53.274Z,3.40
2022-09-07T04:13:21.864Z,3.90
2022-09-07T04:15:53.787Z,3.40
2022-09-07T04:18:22.367Z,3.60
2022-09-07T04:20:50.970Z,3.60
2022-09-07T04:23:18.936Z,3.70
2022-09-07T04:25:52.021Z,3.33
2022-09-07T04:28:20.841Z,4.00
2022-09-07T04:30:49.096Z,3.27
2022-09-07T04:33:17.490Z,3.83
2022-09-07T04:35:45.326Z,3.80
2022-09-07T04:38:14.556Z,4.00
2022-09-07T04:40:42.586Z,3.90
2022-09-07T04:43:13.210Z,3.80
2022-09-07T04:45:41.490Z,3.77
2022-09-07T04:48:09.555Z,3.70
2022-09-07T04:50:37.575Z,4.03
2022-09-07T04:53:05.533Z,3.80
2022-09-07T04:55:33.905Z,3.87
2022-09-07T04:58:01.629Z,3.60
2022-09-07T05:00:32.061Z,4.00
2022-09-07T05:03:00.989Z,4.30
2022-09-07T05:05:28.759Z,3.80
2022-09-07T05:07:56.654Z,3.93
2022-09-07T05:10:24.795Z,4.00
2022-09-07T05:12:52.545Z,4.33
2022-09-07T05:15:20.398Z,3.80
2022-09-07T05:17:50.186Z,4.20
2022-09-07T05:20:20.483Z,3.87
2022-09-07T05:23:11.884Z,4.27
2022-09-07T05:25:43.898Z,4.93
2022-09-07T05:28:13.868Z,3.70
2022-09-07T05:36:22.733Z,4.00
2022-09-07T05:38:50.688Z,3.73
2022-09-07T05:41:19.982Z,4.10
2022-09-07T05:46:36.586Z,3.80
2022-09-07T05:49:07.976Z,4.70
2022-09-07T05:51:37.071Z,4.10
2022-09-07T05:54:05.191Z,3.80
2022-09-07T05:56:35.088Z,4.20
2022-09-07T05:59:03.405Z,4.20
2022-09-07T06:01:31.131Z,4.30
2022-09-07T06:03:59.095Z,4.37
2022-09-07T06:06:28.615Z,4.20
2022-09-07T06:08:57.640Z,4.13
2022-09-07T06:11:26.942Z,4.80
2022-09-07T06:13:54.976Z,4.20
2022-09-07T06:16:22.863Z,4.73
2022-09-07T06:18:50.873Z,4.53
2022-09-07T06:21:19.591Z,4.27
2022-09-07T06:23:49.054Z,4.53
2022-09-07T06:26:19.867Z,4.50
2022-09-07T06:28:50.143Z,4.63
2022-09-07T06:31:20.383Z,4.87
2022-09-07T06:33:48.737Z,4.37
2022-09-07T06:36:17.819Z,4.40
2022-09-07T06:38:47.029Z,4.93
2022-09-07T06:44:05.092Z,4.30
2022-09-07T06:49:20.736Z,4.93
2022-09-07T06:51:48.385Z,4.70
2022-09-07T06:57:09.452Z,5.43
2022-09-07T06:59:37.780Z,4.93
2022-09-07T07:02:05.793Z,4.90
2022-09-07T07:04:39.444Z,4.33
2022-09-07T07:07:07.505Z,5.10
2022-09-07T07:09:36.353Z,4.80
2022-09-07T07:12:04.434Z,6.10
2022-09-07T07:14:34.591Z,5.43
2022-09-07T07:17:04.217Z,4.60
2022-09-07T07:19:32.235Z,5.97
2022-09-07T07:22:35.965Z,5.93
2022-09-07T07:24:48.387Z,5.83
2022-09-07T07:27:16.077Z,5.30
2022-09-07T07:29:45.818Z,5.20
2022-09-07T07:32:13.801Z,5.70
2022-09-07T07:34:41.442Z,5.30
2022-09-07T07:37:09.207Z,5.73
2022-09-07T07:42:28.253Z,5.40
2022-09-07T07:47:49.531Z,5.50
2022-09-07T07:50:34.156Z,5.73
2022-09-07T07:55:50.628Z,6.13
2022-09-07T07:58:18.264Z,6.87
2022-09-07T08:00:55.922Z,6.50
2022-09-07T08:03:24.764Z,6.20
2022-09-07T08:05:52.604Z,5.97
2022-09-07T08:08:20.541Z,5.97
2022-09-07T08:10:48.515Z,6.40
2022-09-07T08:13:16.546Z,6.17
2022-09-07T08:15:46.229Z,6.43
2022-09-07T08:18:16.247Z,5.60
2022-09-07T08:20:44.059Z,5.80
2022-09-07T08:23:11.972Z,6.10
2022-09-07T08:25:40.057Z,6.13
2022-09-07T08:28:07.710Z,6.17
2022-09-07T08:30:35.573Z,6.10
2022-09-07T08:33:03.488Z,5.83
2022-09-07T08:35:32.543Z,5.80
2022-09-07T08:38:00.489Z,6.17
2022-09-07T08:40:28.522Z,5.60
2022-09-07T08:43:02.288Z,6.20
2022-09-07T08:45:32.320Z,6.63
2022-09-07T08:48:00.009Z,6.70
2022-09-07T08:50:29.688Z,6.27
2022-09-07T08:53:00.444Z,6.60
2022-09-07T08:55:29.785Z,6.30
2022-09-07T08:58:02.820Z,6.77
2022-09-07T09:00:31.151Z,10.60
2022-09-07T09:05:54.797Z,6.60
2022-09-07T09:08:31.278Z,7.03
2022-09-07T09:11:03.059Z,7.70
2022-09-07T09:13:36.780Z,8.60
2022-09-07T09:16:07.178Z,6.87
2022-09-07T09:18:40.388Z,6.47
2022-09-07T09:21:13.717Z,7.03
2022-09-07T09:23:43.808Z,7.03
2022-09-07T09:26:14.449Z,6.97
2022-09-07T09:28:42.582Z,6.70
2022-09-07T09:31:16.787Z,6.73
2022-09-07T09:33:44.723Z,6.77
2022-09-07T09:36:25.136Z,6.80
2022-09-07T09:38:55.528Z,7.50
2022-09-07T09:41:23.335Z,7.70
2022-09-07T09:43:54.277Z,7.53
2022-09-07T09:46:25.087Z,7.07
2022-09-07T09:48:55.229Z,7.63
2022-09-07T09:54:21.728Z,7.70
2022-09-07T09:56:49.923Z,11.83
2022-09-07T10:05:26.932Z,8.07
2022-09-07T10:07:55.140Z,8.77
2022-09-07T10:10:24.265Z,7.60
2022-09-07T10:12:54.068Z,8.10
2022-09-07T10:15:26.810Z,8.40
2022-09-07T10:17:54.637Z,7.70
2022-09-07T10:20:33.713Z,8.27
2022-09-07T10:23:01.824Z,8.50
2022-09-07T10:25:32.360Z,8.97
2022-09-07T10:28:15.680Z,9.20
2022-09-07T10:30:49.842Z,9.50
2022-09-07T10:33:19.937Z,8.83
2022-09-07T10:35:51.242Z,9.40
2022-09-07T10:38:21.484Z,9.67
2022-09-07T10:40:54.721Z,9.03
2022-09-07T10:43:28.002Z,9.10
2022-09-07T10:46:04.485Z,8.60
2022-09-07T10:48:35.414Z,9.60
2022-09-07T10:51:13.407Z,9.67
2022-09-07T10:53:47.951Z,8.97
2022-09-07T10:56:38.740Z,10.10
2022-09-07T10:59:11.961Z,9.73
2022-09-07T11:01:48.675Z,9.30
2022-09-07T11:04:30.397Z,9.07
2022-09-07T11:07:02.761Z,9.37
2022-09-07T11:09:42.410Z,10.23
2022-09-07T11:12:20.754Z,9.50
2022-09-07T11:14:54.080Z,10.20
2022-09-07T11:17:22.783Z,9.10
2022-09-07T11:19:53.809Z,8.83
2022-09-07T11:22:34.946Z,9.43
2022-09-07T11:27:58.739Z,9.20
2022-09-07T11:30:28.938Z,9.73
2022-09-07T11:33:00.637Z,9.30
2022-09-07T11:35:35.179Z,9.23
2022-09-07T11:38:06.467Z,8.83
2022-09-07T11:40:36.143Z,9.80
2022-09-07T11:43:11.615Z,10.40
2022-09-07T11:45:42.180Z,8.00
2022-09-07T11:48:19.616Z,10.17
2022-09-07T11:50:50.164Z,9.70
2022-09-07T11:53:19.388Z,9.10
2022-09-07T11:55:49.560Z,9.07
2022-09-07T11:58:25.236Z,9.30
2022-09-07T12:00:55.322Z,10.10
2022-09-07T12:03:38.393Z,9.77
2022-09-07T12:06:16.350Z,10.00
2022-09-07T12:08:58.428Z,9.93
2022-09-07T12:11:35.965Z,9.37
2022-09-07T12:14:13.582Z,10.40
2022-09-07T12:16:51.532Z,10.17
2022-09-07T12:19:20.259Z,9.60
2022-09-07T12:21:50.341Z,10.40
2022-09-07T12:24:34.464Z,10.30
2022-09-07T12:27:02.517Z,9.60
2022-09-07T12:29:32.001Z,9.23
2022-09-07T12:32:52.630Z,9.97
2022-09-07T12:34:53.194Z,9.60
2022-09-07T12:37:40.633Z,9.80
2022-09-07T12:40:27.086Z,10.47
2022-09-07T12:43:10.184Z,10.93
2022-09-07T12:45:52.506Z,9.10
2022-09-07T12:48:28.893Z,9.90
2022-09-07T12:50:58.873Z,10.40
2022-09-07T12:53:33.610Z,10.03
2022-09-07T12:56:16.722Z,10.70
2022-09-07T13:07:28.432Z,10.80
2022-09-07T13:09:57.469Z,17.57
2022-09-07T13:15:31.054Z,10.93
2022-09-07T13:17:58.658Z,11.10
2022-09-07T13:20:34.793Z,10.27
2022-09-07T13:23:20.671Z,11.03
2022-09-07T13:25:54.509Z,10.77
2022-09-07T13:28:24.333Z,10.70
2022-09-07T13:30:59.371Z,13.93
2022-09-07T13:33:43.663Z,10.40
2022-09-07T13:36:17.924Z,12.60
2022-09-07T13:38:45.893Z,11.03
2022-09-07T13:41:17.883Z,11.10
2022-09-07T13:43:47.414Z,10.50
2022-09-07T13:46:19.198Z,9.57
2022-09-07T13:48:50.244Z,10.97
2022-09-07T13:51:20.198Z,11.47
2022-09-07T13:54:05.017Z,11.20
2022-09-07T13:56:39.057Z,10.50
2022-09-07T13:59:14.845Z,9.60
2022-09-07T14:01:46.332Z,9.60
2022-09-07T14:04:20.430Z,10.93
2022-09-07T14:06:49.298Z,10.43
2022-09-07T14:09:17.706Z,10.27
2022-09-07T14:11:48.802Z,9.43
2022-09-07T14:14:17.685Z,9.87
2022-09-07T14:16:47.915Z,10.17
2022-09-07T14:19:20.702Z,9.90
2022-09-07T14:21:55.443Z,9.60
2022-09-07T14:24:28.180Z,9.40
2022-09-07T14:26:57.834Z,9.60
2022-09-07T14:29:27.071Z,11.67
2022-09-07T14:31:55.421Z,10.60
2022-09-07T14:34:25.677Z,10.47
2022-09-07T14:36:54.131Z,9.63
2022-09-07T14:39:23.359Z,9.07
2022-09-07T14:41:51.467Z,10.10
2022-09-07T14:44:30.945Z,10.70
2022-09-07T14:46:59.585Z,11.30
2022-09-07T14:49:28.732Z,9.30
2022-09-07T14:51:57.063Z,10.67
2022-09-07T14:54:27.293Z,9.63
2022-09-07T14:57:01.317Z,10.50
2022-09-07T14:59:36.500Z,9.43
2022-09-07T15:02:25.258Z,10.00
2022-09-07T15:05:08.209Z,9.20
2022-09-07T15:07:39.200Z,9.67
2022-09-07T15:10:16.831Z,8.93
2022-09-07T15:12:45.041Z,8.77
2022-09-07T15:15:22.046Z,8.97
2022-09-07T15:17:50.413Z,9.70
2022-09-07T15:20:35.681Z,9.90
2022-09-07T15:23:04.944Z,9.97
2022-09-07T15:25:32.911Z,10.40
2022-09-07T15:28:00.765Z,9.20
2022-09-07T15:34:50.554Z,9.50
2022-09-07T15:40:12.750Z,9.37
2022-09-07T15:45:28.378Z,11.00
2022-09-07T15:47:56.361Z,8.70
2022-09-07T15:50:25.557Z,9.70
2022-09-07T15:52:53.227Z,10.57
2022-09-07T15:55:21.144Z,8.80
2022-09-07T15:57:54.543Z,10.10
2022-09-07T16:00:25.082Z,9.37
2022-09-07T16:03:08.807Z,9.67
2022-09-07T16:05:44.275Z,10.07
2022-09-07T16:08:27.642Z,10.60
2022-09-07T16:11:04.708Z,9.60
2022-09-07T16:13:33.573Z,9.47
2022-09-07T16:16:02.087Z,9.40
2022-09-07T16:18:33.164Z,9.93
2022-09-07T16:21:06.756Z,10.03
2022-09-07T16:23:34.442Z,10.13
2022-09-07T16:26:04.114Z,10.07
2022-09-07T16:28:33.275Z,11.07
2022-09-07T16:31:01.055Z,11.43
2022-09-07T16:33:36.500Z,10.50
2022-09-07T16:36:07.373Z,9.93
2022-09-07T16:38:50.652Z,10.17
2022-09-07T16:41:20.439Z,9.90
2022-09-07T16:43:48.702Z,10.67
2022-09-07T16:46:17.369Z,13.00
2022-09-07T16:48:45.341Z,13.70
2022-09-07T16:51:15.000Z,12.90
2022-09-07T16:53:42.661Z,12.03
2022-09-07T16:56:11.417Z,11.10
2022-09-07T16:58:39.983Z,9.70
2022-09-07T17:01:07.970Z,13.03
2022-09-07T17:03:36.908Z,13.33
2022-09-07T17:06:05.447Z,12.23
2022-09-07T17:08:35.310Z,10.17
2022-09-07T17:11:03.492Z,10.73
2022-09-07T17:13:31.630Z,10.70
2022-09-07T17:16:02.669Z,11.10
2022-09-07T17:21:19.779Z,13.30
2022-09-07T17:23:54.758Z,11.20
2022-09-07T17:26:26.225Z,11.40
2022-09-07T17:28:55.541Z,9.90
2022-09-07T17:34:13.780Z,9.13
2022-09-07T17:36:42.608Z,9.10
2022-09-07T17:39:17.180Z,7.20
2022-09-07T17:41:46.350Z,7.37
2022-09-07T17:44:13.895Z,6.63
2022-09-07T17:46:41.719Z,6.70
2022-09-07T17:49:12.254Z,7.07
2022-09-07T17:51:40.214Z,6.73
2022-09-07T17:54:10.876Z,6.90
2022-09-07T17:56:41.347Z,5.87
2022-09-07T18:01:57.270Z,8.70
2022-09-07T18:04:25.369Z,6.17
2022-09-07T18:06:54.860Z,6.50
2022-09-07T18:09:22.653Z,8.50
2022-09-07T18:11:51.717Z,7.77
2022-09-07T18:14:20.444Z,6.33
2022-09-07T18:16:49.334Z,6.20
2022-09-07T18:19:18.381Z,7.30
2022-09-07T18:21:47.925Z,8.53
2022-09-07T18:24:17.851Z,8.87
2022-09-07T18:26:50.215Z,9.37
2022-09-07T18:29:31.106Z,10.10
2022-09-07T18:32:00.419Z,9.40
2022-09-07T18:34:28.843Z,11.53
2022-09-07T18:36:58.077Z,11.20
2022-09-07T18:39:25.901Z,10.60
2022-09-07T18:41:54.661Z,9.50
2022-09-07T18:47:21.667Z,11.60
2022-09-07T18:49:51.561Z,11.47
2022-09-07T18:55:08.480Z,10.20
2022-09-07T18:57:37.852Z,9.13
2022-09-07T19:00:10.028Z,11.50
2022-09-07T19:02:39.393Z,10.43
2022-09-07T19:10:50.635Z,10.40
2022-09-07T19:13:18.255Z,11.10
2022-09-07T19:15:47.417Z,10.10
2022-09-07T19:18:15.303Z,11.10
2022-09-07T19:20:42.794Z,10.00
2022-09-07T19:23:10.499Z,11.43
2022-09-07T19:25:42.287Z,10.50
2022-09-07T19:28:10.208Z,11.67
2022-09-07T19:30:37.799Z,12.80
2022-09-07T19:33:10.108Z,12.27
2022-09-07T19:35:37.735Z,11.37
2022-09-07T19:38:05.317Z,12.40
2022-09-07T19:40:33.254Z,11.60
2022-09-07T19:43:00.703Z,10.60
2022-09-07T19:45:28.367Z,11.23
2022-09-07T19:47:55.896Z,11.00
2022-09-07T19:50:24.812Z,11.73
2022-09-07T19:52:52.282Z,11.63
2022-09-07T19:55:20.115Z,11.80
2022-09-07T19:57:47.663Z,11.77
2022-09-07T20:00:15.643Z,13.47
2022-09-07T20:02:43.477Z,10.73
2022-09-07T20:05:11.757Z,11.07
2022-09-07T20:07:40.643Z,10.90
2022-09-07T20:10:08.878Z,10.80
2022-09-07T20:12:36.450Z,10.23
2022-09-07T20:15:06.263Z,10.20
2022-09-07T20:17:35.521Z,9.33
2022-09-07T20:20:03.759Z,9.70
2022-09-07T20:22:31.351Z,10.37
2022-09-07T20:25:00.638Z,10.97
2022-09-07T20:27:28.282Z,10.23
2022-09-07T20:29:55.847Z,11.83
2022-09-07T20:32:23.971Z,12.17
2022-09-07T20:34:53.246Z,9.70
2022-09-07T20:37:21.734Z,10.30
2022-09-07T20:39:49.609Z,10.50
2022-09-07T20:42:18.812Z,9.90
2022-09-07T20:44:46.407Z,10.33
2022-09-07T20:47:14.354Z,9.63
2022-09-07T20:49:42.291Z,9.77
2022-09-07T20:52:09.749Z,9.70
2022-09-07T20:54:38.739Z,10.00
2022-09-07T20:57:06.315Z,10.30
2022-09-07T20:59:35.310Z,9.90
2022-09-07T21:02:02.927Z,10.40
2022-09-07T21:04:30.577Z,9.60
2022-09-07T21:06:58.098Z,9.37
2022-09-07T21:09:25.996Z,8.80
2022-09-07T21:11:56.897Z,9.00
2022-09-07T21:14:24.890Z,8.83
2022-09-07T21:16:53.948Z,8.30
2022-09-07T21:19:21.537Z,7.33
2022-09-07T21:21:49.088Z,8.23
2022-09-07T21:24:18.698Z,8.03
2022-09-07T21:26:46.740Z,11.97
2022-09-07T21:29:17.436Z,11.43
2022-09-07T21:31:45.224Z,11.17
2022-09-07T21:34:14.666Z,8.23
2022-09-07T21:36:42.300Z,8.30
2022-09-07T21:39:13.857Z,8.97
2022-09-07T21:41:42.969Z,8.53
2022-09-07T21:44:12.595Z,8.03
2022-09-07T21:46:40.324Z,7.93
2022-09-07T21:49:07.991Z,7.67
2022-09-07T21:51:37.663Z,7.30
2022-09-07T21:54:05.571Z,8.00
2022-09-07T21:56:33.408Z,7.33
2022-09-07T21:59:02.076Z,8.10
2022-09-07T22:01:30.139Z,7.60
2022-09-07T22:03:59.210Z,7.43
2022-09-07T22:06:27.587Z,8.73
2022-09-07T22:08:56.702Z,8.03
2022-09-07T22:11:24.765Z,6.80
2022-09-07T22:13:54.962Z,7.20
2022-09-07T22:16:22.614Z,7.20
2022-09-07T22:18:50.397Z,7.00
2022-09-07T22:21:19.078Z,7.10
2022-09-07T22:23:47.957Z,7.67
2022-09-07T22:26:21.019Z,12.23
2022-09-07T22:28:49.059Z,10.73
2022-09-07T22:31:17.842Z,6.83
2022-09-07T22:33:46.144Z,10.47
2022-09-07T22:36:15.644Z,7.60
2022-09-07T22:38:44.084Z,7.40
2022-09-07T22:41:13.726Z,7.57
2022-09-07T22:43:43.514Z,7.33
2022-09-07T22:46:11.129Z,8.93
2022-09-07T22:48:39.279Z,6.20
2022-09-07T22:51:07.070Z,7.53
2022-09-07T22:53:35.646Z,6.63
2022-09-07T22:56:06.280Z,7.30
2022-09-07T22:58:34.140Z,7.30
2022-09-07T23:01:03.160Z,7.47
2022-09-07T23:03:31.488Z,7.20
2022-09-07T23:06:00.843Z,7.20
2022-09-07T23:08:28.815Z,7.40
2022-09-07T23:10:56.321Z,6.80
2022-09-07T23:13:23.849Z,7.03
2022-09-07T23:15:51.420Z,6.10
2022-09-07T23:18:22.301Z,6.60
2022-09-07T23:20:49.783Z,8.17
2022-09-07T23:23:17.534Z,9.53
2022-09-07T23:25:45.061Z,7.43
2022-09-07T23:28:13.239Z,6.90
2022-09-07T23:30:41.415Z,6.40
2022-09-07T23:33:08.952Z,6.60
2022-09-07T23:35:37.795Z,7.20
2022-09-07T23:38:05.442Z,7.47
2022-09-07T23:40:34.207Z,7.93
2022-09-07T23:43:02.454Z,6.70
2022-09-07T23:45:30.083Z,6.20
2022-09-07T23:47:57.925Z,6.73
2022-09-07T23:50:26.298Z,6.20
2022-09-07T23:52:55.209Z,5.67
2022-09-07T23:55:22.749Z,6.60
2022-09-07T23:57:50.246Z,5.87
